Time;durP1;ratioP1;P1;durP2;ratioP2;P2;SDS_P1;SDS_P2;PMS_P1;PMS_P2;Temp;Humidity;BMP_temperature;BMP_pressure;BME280_temperature;BME280_humidity;BME280_pressure;Samples;Min_cycle;Max_cycle;Signal;HPM_P1;HPM_P2
2023/01/20 00:01:47;;;;;;;21.20;4.40;;;;;;;8.20;70.82;100340.46;107601;1254;97791;-60
2023/01/20 00:04:19;;;;;;;24.30;5.20;;;;;;;8.27;70.98;100338.80;107568;1254;111383;-59
2023/01/20 00:06:47;;;;;;;25.40;6.60;;;;;;;8.31;70.88;100330.92;107572;1253;110280;-60
2023/01/20 00:09:17;;;;;;;22.10;4.80;;;;;;;8.36;70.80;100331.98;107520;1255;106883;-59
2023/01/20 00:11:46;;;;;;;20.40;5.00;;;;;;;8.37;70.57;100333.23;107594;1254;97707;-60
2023/01/20 00:14:15;;;;;;;18.00;5.50;;;;;;;8.37;70.33;100334.17;107544;1254;97826;-60
2023/01/20 00:16:43;;;;;;;21.80;4.50;;;;;;;8.36;70.20;100338.16;107605;1252;111798;-60
2023/01/20 00:19:13;;;;;;;22.50;4.70;;;;;;;8.38;70.13;100342.12;107586;1254;109916;-60
2023/01/20 00:21:42;;;;;;;19.00;4.20;;;;;;;8.39;70.12;100342.97;107553;1253;107594;-59
2023/01/20 00:24:10;;;;;;;18.90;5.10;;;;;;;8.39;70.35;100348.61;107601;1252;97848;-59
2023/01/20 00:26:39;;;;;;;22.50;5.30;;;;;;;8.37;70.24;100355.58;107589;1254;97852;-59
2023/01/20 00:29:08;;;;;;;21.80;4.90;;;;;;;8.35;70.23;100366.67;107584;1253;112068;-60
2023/01/20 00:31:37;;;;;;;18.60;5.00;;;;;;;8.37;70.21;100379.77;107577;1254;108428;-60
2023/01/20 00:34:05;;;;;;;31.20;5.50;;;;;;;8.35;70.00;100384.20;107610;1252;108612;-60
2023/01/20 00:36:34;;;;;;;18.50;5.50;;;;;;;8.31;69.75;100387.01;107581;1253;97838;-59
2023/01/20 00:39:03;;;;;;;24.40;4.00;;;;;;;8.26;69.53;100387.67;107633;1252;97730;-59
2023/01/20 00:41:32;;;;;;;23.60;3.80;;;;;;;8.12;69.40;100384.84;107625;1254;111356;-59
2023/01/20 00:44:00;;;;;;;23.00;4.20;;;;;;;8.01;69.51;100381.34;107586;1253;109717;-59
2023/01/20 00:46:29;;;;;;;24.20;4.80;;;;;;;7.94;69.82;100389.23;107575;1253;108447;-58
2023/01/20 00:48:57;;;;;;;22.50;4.00;;;;;;;7.90;69.77;100387.08;107577;1254;97819;-58
2023/01/20 00:51:25;;;;;;;22.80;4.40;;;;;;;7.85;69.79;100382.98;107604;1253;97711;-58
2023/01/20 00:53:54;;;;;;;22.40;5.00;;;;;;;7.82;69.79;100378.65;107591;1254;111901;-59
2023/01/20 00:56:23;;;;;;;18.70;4.50;;;;;;;7.75;69.80;100368.16;107614;1254;109238;-59
2023/01/20 00:58:54;;;;;;;15.20;4.00;;;;;;;7.69;69.83;100374.20;107577;1252;108311;-60
2023/01/20 01:01:22;;;;;;;22.70;4.70;;;;;;;7.63;69.78;100386.27;107567;1254;97834;-58
2023/01/20 01:03:53;;;;;;;20.30;4.20;;;;;;;7.58;70.03;100386.50;107663;1253;99550;-60
2023/01/20 01:06:22;;;;;;;18.50;5.20;;;;;;;7.55;69.98;100368.95;107623;1254;110605;-60
2023/01/20 01:08:51;;;;;;;19.50;4.40;;;;;;;7.50;70.09;100361.64;107574;1253;109892;-58
2023/01/20 01:11:20;;;;;;;15.50;4.20;;;;;;;7.45;70.26;100364.02;107557;1253;107267;-60
2023/01/20 01:13:48;;;;;;;23.30;4.50;;;;;;;7.42;70.35;100364.96;107571;1254;97903;-58
2023/01/20 01:16:16;;;;;;;22.70;4.20;;;;;;;7.39;70.39;100363.27;107547;1254;97822;-59
2023/01/20 01:18:45;;;;;;;26.40;4.50;;;;;;;7.35;70.60;100357.85;107543;1254;112114;-59
2023/01/20 01:21:16;;;;;;;21.50;4.60;;;;;;;7.36;70.87;100364.52;107596;1256;109678;-58
2023/01/20 01:23:44;;;;;;;24.70;5.00;;;;;;;7.37;71.11;100368.02;107612;1252;108633;-60
2023/01/20 01:26:13;;;;;;;21.70;4.50;;;;;;;7.38;71.31;100367.83;107527;1255;97835;-60
2023/01/20 01:28:41;;;;;;;14.20;4.00;;;;;;;7.38;71.67;100366.02;107580;1253;97966;-59
2023/01/20 01:31:10;;;;;;;26.60;4.40;;;;;;;7.41;71.89;100356.84;107564;1254;111459;-60
2023/01/20 01:33:39;;;;;;;25.20;4.60;;;;;;;7.45;71.93;100356.31;107570;1253;109927;-61
2023/01/20 01:36:12;;;;;;;22.10;5.20;;;;;;;7.48;72.01;100359.11;107567;1253;108671;-59
2023/01/20 01:38:41;;;;;;;21.10;3.20;;;;;;;7.50;72.02;100354.08;107564;1258;97871;-59
2023/01/20 01:41:12;;;;;;;23.10;4.10;;;;;;;7.53;72.18;100356.02;107648;1254;97844;-59
2023/01/20 01:44:04;;;;;;;19.00;4.30;;;;;;;7.56;72.29;100360.27;107652;1254;111980;-59
2023/01/20 01:46:34;;;;;;;23.80;5.00;;;;;;;7.57;72.12;100356.06;107587;1254;109070;-59
2023/01/20 01:49:09;;;;;;;15.70;4.00;;;;;;;7.59;72.19;100353.55;107584;1254;107727;-59
2023/01/20 01:51:45;;;;;;;20.90;3.90;;;;;;;7.62;72.30;100360.83;107618;1252;97842;-60
2023/01/20 01:54:23;;;;;;;16.40;3.70;;;;;;;7.61;72.18;100364.80;107592;1256;97691;-59
2023/01/20 01:56:52;;;;;;;22.50;3.70;;;;;;;7.59;72.08;100362.15;107584;1253;111424;-59
2023/01/20 01:59:21;;;;;;;17.20;4.60;;;;;;;7.57;71.80;100357.64;107602;1253;110559;-59
2023/01/20 02:01:51;;;;;;;23.80;6.40;;;;;;;7.55;71.64;100353.70;107585;1254;108512;-58
2023/01/20 02:04:23;;;;;;;19.20;4.80;;;;;;;7.53;71.80;100359.04;107557;1254;97816;-59
2023/01/20 02:07:18;;;;;;;19.80;4.30;;;;;;;7.50;71.51;100366.65;107565;1256;97713;-58
2023/01/20 02:09:47;;;;;;;20.10;4.40;;;;;;;7.44;71.19;100373.16;107338;1253;112237;-59
2023/01/20 02:12:19;;;;;;;18.60;5.00;;;;;;;7.36;71.38;100368.08;107529;1253;110369;-59
2023/01/20 02:14:51;;;;;;;18.30;4.50;;;;;;;7.23;71.21;100367.95;107508;1253;108676;-60
2023/01/20 02:17:29;;;;;;;23.00;4.60;;;;;;;7.15;71.24;100367.88;107505;1253;97930;-59
2023/01/20 02:20:06;;;;;;;24.20;5.10;;;;;;;7.08;71.54;100367.89;107551;1253;97955;-59
2023/01/20 02:22:40;;;;;;;27.10;5.10;;;;;;;7.01;71.36;100364.82;107505;1253;111340;-59
2023/01/20 02:25:09;;;;;;;23.20;5.20;;;;;;;6.96;71.21;100367.38;107510;1253;109244;-59
2023/01/20 02:28:15;;;;;;;19.20;4.50;;;;;;;6.89;71.44;100362.44;107502;1254;108190;-59
2023/01/20 02:31:06;;;;;;;16.60;3.90;;;;;;;6.78;71.73;100354.69;107510;1253;97844;-59
2023/01/20 02:34:03;;;;;;;17.50;4.20;;;;;;;6.70;71.87;100360.67;107561;1253;97826;-59
2023/01/20 02:36:35;;;;;;;28.90;5.00;;;;;;;6.64;72.08;100354.42;107420;1253;112368;-59
2023/01/20 02:39:12;;;;;;;19.90;5.00;;;;;;;6.58;72.11;100353.77;107522;1253;109686;-59
2023/01/20 02:41:54;;;;;;;24.40;4.50;;;;;;;6.53;72.21;100348.66;107522;1254;108593;-60
2023/01/20 02:44:28;;;;;;;21.80;4.60;;;;;;;6.49;72.41;100344.50;107489;1253;97932;-59
2023/01/20 02:47:05;;;;;;;12.30;3.60;;;;;;;6.47;72.49;100348.96;107549;1253;98462;-60
2023/01/20 02:49:49;;;;;;;17.20;3.20;;;;;;;6.43;72.83;100358.15;107480;1258;112224;-59
2023/01/20 02:52:23;;;;;;;13.90;4.50;;;;;;;6.42;72.84;100361.80;107549;1253;110894;-59
2023/01/20 02:54:56;;;;;;;19.20;3.60;;;;;;;6.44;73.36;100357.39;107535;1253;108620;-59
2023/01/20 02:57:29;;;;;;;15.20;3.80;;;;;;;6.47;73.52;100350.20;107514;1254;97946;-59
2023/01/20 03:00:06;;;;;;;10.10;2.70;;;;;;;6.52;73.76;100355.01;107488;1253;97820;-60
2023/01/20 03:02:38;;;;;;;21.00;3.50;;;;;;;6.56;74.00;100353.62;107540;1253;111921;-59
2023/01/20 03:05:13;;;;;;;20.90;4.20;;;;;;;6.59;74.05;100349.77;107505;1253;109013;-60
2023/01/20 03:07:43;;;;;;;12.70;3.60;;;;;;;6.67;74.22;100347.58;107496;1253;108603;-61
2023/01/20 03:10:17;;;;;;;17.70;4.30;;;;;;;6.73;74.54;100345.83;107500;1253;98008;-58
2023/01/20 03:12:48;;;;;;;;;;;;;;;6.78;74.34;100343.88;107536;1258;97841;-60
2023/01/20 03:15:23;;;;;;;12.10;3.70;;;;;;;6.83;74.61;100341.55;107470;1253;111380;-59
2023/01/20 03:17:51;;;;;;;11.30;2.60;;;;;;;6.91;74.77;100338.20;107545;1253;109018;-58
2023/01/20 03:20:19;;;;;;;17.00;3.70;;;;;;;6.98;74.83;100334.95;107453;1253;107865;-59
2023/01/20 03:22:48;;;;;;;21.10;3.90;;;;;;;7.05;74.68;100336.02;107495;1253;97880;-59
2023/01/20 03:25:19;;;;;;;15.50;3.30;;;;;;;7.11;74.94;100346.23;107521;1253;98367;-60
2023/01/20 03:27:48;;;;;;;16.30;5.20;;;;;;;7.15;74.82;100355.70;107513;1254;112378;-59
2023/01/20 03:30:17;;;;;;;22.60;5.30;;;;;;;7.16;74.65;100355.27;107521;1254;110854;-59
2023/01/20 03:32:48;;;;;;;23.30;3.80;;;;;;;7.17;74.72;100352.89;107521;1253;108676;-59
2023/01/20 03:35:17;;;;;;;20.10;4.60;;;;;;;7.20;75.18;100355.30;107530;1254;97934;-61
2023/01/20 03:37:46;;;;;;;14.00;3.90;;;;;;;7.24;75.67;100355.02;107608;1254;97717;-58
2023/01/20 03:40:15;;;;;;;23.20;3.30;;;;;;;7.27;75.59;100359.58;107574;1254;113383;-61
2023/01/20 03:42:56;;;;;;;15.00;4.10;;;;;;;7.34;76.12;100363.13;107668;1254;109856;-60
2023/01/20 03:45:58;;;;;;;31.60;11.50;;;;;;;7.36;76.22;100358.31;107550;1254;108743;-59
2023/01/20 03:49:00;;;;;;;28.00;5.40;;;;;;;7.40;76.06;100362.60;107541;1253;97850;-59
2023/01/20 03:51:39;;;;;;;14.70;4.30;;;;;;;7.41;75.98;100350.36;107525;1254;97835;-60
2023/01/20 03:54:11;;;;;;;35.00;8.10;;;;;;;7.43;75.90;100351.00;107561;1254;112000;-60
2023/01/20 03:56:42;;;;;;;32.30;9.90;;;;;;;7.46;76.16;100348.38;107552;1254;108260;-59
2023/01/20 03:59:13;;;;;;;20.50;6.40;;;;;;;7.46;76.25;100353.73;107559;1254;108939;-60
2023/01/20 04:01:43;;;;;;;26.90;8.10;;;;;;;7.47;76.21;100356.20;107571;1253;97915;-59
2023/01/20 04:04:18;;;;;;;20.70;5.90;;;;;;;7.47;76.46;100357.36;107528;1254;97780;-59
2023/01/20 04:06:50;;;;;;;21.90;7.60;;;;;;;7.47;76.77;100359.52;107633;1254;112010;-59
2023/01/20 04:09:27;;;;;;;28.00;6.10;;;;;;;7.46;77.09;100368.34;107530;1254;110341;-60
2023/01/20 04:11:57;;;;;;;22.10;5.40;;;;;;;7.43;77.10;100361.64;107509;1253;108471;-59
2023/01/20 04:14:25;;;;;;;14.80;4.50;;;;;;;7.39;76.96;100361.27;107542;1254;97829;-59
2023/01/20 04:16:58;;;;;;;13.70;4.50;;;;;;;7.35;76.71;100362.48;107565;1253;97835;-58
2023/01/20 04:19:26;;;;;;;14.50;4.00;;;;;;;7.34;76.99;100357.92;107588;1254;110790;-59
2023/01/20 04:22:16;;;;;;;22.50;4.50;;;;;;;7.35;77.11;100370.30;107549;1256;109704;-58
2023/01/20 04:24:57;;;;;;;15.80;3.60;;;;;;;7.34;77.44;100367.17;107541;1256;109261;-60
2023/01/20 04:27:25;;;;;;;21.10;3.40;;;;;;;7.34;78.35;100368.24;107562;1254;97841;-59
2023/01/20 04:29:54;;;;;;;19.70;3.90;;;;;;;7.37;78.33;100366.75;107539;1254;97714;-59
2023/01/20 04:32:22;;;;;;;18.50;4.10;;;;;;;7.41;78.90;100373.40;107521;1254;112060;-60
2023/01/20 04:34:52;;;;;;;17.70;4.60;;;;;;;7.47;78.68;100373.27;107586;1253;109960;-59
2023/01/20 04:37:20;;;;;;;18.50;3.80;;;;;;;7.52;78.69;100376.26;107559;1254;108295;-59
2023/01/20 04:39:48;;;;;;;22.10;4.50;;;;;;;7.57;78.63;100377.48;107549;1254;97847;-59
2023/01/20 04:42:17;;;;;;;18.90;4.20;;;;;;;7.62;78.83;100368.84;107550;1254;97841;-59
2023/01/20 04:44:45;;;;;;;18.90;4.60;;;;;;;7.67;79.35;100369.36;107518;1253;112711;-59
2023/01/20 04:47:13;;;;;;;18.80;4.30;;;;;;;7.74;79.55;100371.43;107519;1254;109634;-59
2023/01/20 04:49:42;;;;;;;10.50;3.60;;;;;;;7.83;79.43;100378.89;107459;1254;108078;-59
2023/01/20 04:52:10;;;;;;;19.20;4.30;;;;;;;7.93;79.73;100379.48;107481;1253;97831;-59
2023/01/20 04:54:39;;;;;;;18.90;3.40;;;;;;;8.05;80.26;100381.02;107365;1254;97729;-58
2023/01/20 04:57:07;;;;;;;21.90;3.40;;;;;;;8.18;80.49;100390.98;107515;1253;112422;-59
2023/01/20 04:59:36;;;;;;;18.50;4.40;;;;;;;8.29;80.60;100383.98;107497;1253;109136;-59
2023/01/20 05:02:04;;;;;;;19.20;3.20;;;;;;;8.35;80.02;100374.34;107480;1253;108422;-59
2023/01/20 05:04:32;;;;;;;14.10;3.10;;;;;;;8.39;79.82;100368.86;107490;1253;97851;-59
2023/01/20 05:07:01;;;;;;;19.10;5.10;;;;;;;8.42;79.57;100370.33;107483;1253;98449;-59
2023/01/20 05:09:29;;;;;;;22.90;3.80;;;;;;;8.42;79.47;100373.55;107505;1253;111425;-60
2023/01/20 05:11:58;;;;;;;19.10;3.80;;;;;;;8.42;79.27;100379.34;107562;1253;108783;-59
2023/01/20 05:14:26;;;;;;;28.30;4.10;;;;;;;8.40;79.26;100386.77;107488;1253;108531;-58
2023/01/20 05:16:55;;;;;;;19.80;3.70;;;;;;;8.38;79.03;100383.20;107465;1253;97829;-59
2023/01/20 05:19:23;;;;;;;18.30;3.40;;;;;;;8.38;79.07;100378.80;107472;1254;98040;-59
2023/01/20 05:21:51;;;;;;;27.40;4.10;;;;;;;8.39;79.30;100375.47;107558;1254;112912;-60
2023/01/20 05:24:20;;;;;;;15.30;4.40;;;;;;;8.36;79.39;100365.70;107533;1254;109647;-59
2023/01/20 05:26:49;;;;;;;19.30;3.90;;;;;;;8.33;79.30;100365.77;107554;1253;107695;-59
2023/01/20 05:29:17;;;;;;;15.00;5.20;;;;;;;8.28;79.47;100362.33;107525;1255;97820;-59
2023/01/20 05:31:46;;;;;;;23.90;3.90;;;;;;;8.20;79.84;100363.29;107546;1253;97928;-59
2023/01/20 05:34:15;;;;;;;21.00;4.10;;;;;;;8.11;79.85;100362.08;107527;1254;110867;-59
2023/01/20 05:36:43;;;;;;;10.30;3.50;;;;;;;8.05;80.20;100369.78;107559;1254;109746;-60
2023/01/20 05:39:12;;;;;;;14.50;4.00;;;;;;;7.99;80.41;100370.42;107517;1254;108474;-61
2023/01/20 05:41:40;;;;;;;17.00;4.00;;;;;;;7.97;80.03;100373.05;107514;1254;97854;-59
2023/01/20 05:44:09;;;;;;;18.30;4.30;;;;;;;7.98;80.07;100378.73;107543;1256;99088;-58
2023/01/20 05:46:37;;;;;;;13.40;3.90;;;;;;;7.98;80.25;100373.67;107541;1256;113044;-60
2023/01/20 05:49:06;;;;;;;19.70;5.40;;;;;;;7.98;80.55;100363.50;107580;1254;109197;-59
2023/01/20 05:51:34;;;;;;;17.00;3.10;;;;;;;7.96;81.15;100375.16;107480;1254;108405;-59
2023/01/20 05:54:03;;;;;;;15.40;3.60;;;;;;;7.94;81.17;100380.89;107524;1254;97917;-60
2023/01/20 05:56:31;;;;;;;24.60;6.30;;;;;;;7.92;81.59;100390.43;107504;1254;97772;-58
2023/01/20 05:59:00;;;;;;;19.00;5.00;;;;;;;7.90;81.67;100390.08;107570;1256;111324;-59
2023/01/20 06:01:29;;;;;;;19.90;4.90;;;;;;;7.88;81.92;100387.95;107508;1254;109755;-60
2023/01/20 06:03:57;;;;;;;23.70;4.20;;;;;;;7.86;81.95;100385.30;107576;1256;108526;-61
2023/01/20 06:06:25;;;;;;;18.00;4.80;;;;;;;7.83;82.26;100394.81;107423;1258;98402;-60
2023/01/20 06:08:54;;;;;;;27.90;5.20;;;;;;;7.81;82.27;100393.33;107566;1254;98405;-59
2023/01/20 06:11:22;;;;;;;9.40;3.30;;;;;;;7.82;82.33;100398.80;107557;1254;110762;-58
2023/01/20 06:13:51;;;;;;;14.70;4.20;;;;;;;7.81;82.62;100394.06;107548;1254;109188;-59
2023/01/20 06:16:19;;;;;;;20.00;3.90;;;;;;;7.81;82.56;100396.73;107480;1256;108552;-60
2023/01/20 06:18:48;;;;;;;13.20;3.00;;;;;;;7.80;82.72;100396.45;107545;1255;97827;-59
2023/01/20 06:21:16;;;;;;;18.30;4.20;;;;;;;7.79;82.91;100400.98;107533;1254;98411;-59
2023/01/20 06:23:44;;;;;;;15.70;3.90;;;;;;;7.79;82.91;100406.51;107517;1254;111796;-59
2023/01/20 06:26:13;;;;;;;21.80;4.40;;;;;;;7.80;83.16;100407.34;107503;1254;111077;-60
2023/01/20 06:28:43;;;;;;;22.30;4.50;;;;;;;7.80;83.34;100409.81;107495;1253;108144;-59
2023/01/20 06:31:15;;;;;;;19.90;4.60;;;;;;;7.81;83.60;100407.95;107510;1253;97838;-58
2023/01/20 06:33:43;;;;;;;21.60;4.10;;;;;;;7.82;83.56;100399.30;107588;1256;97707;-59
2023/01/20 06:36:14;;;;;;;17.60;4.40;;;;;;;7.84;83.77;100400.39;107614;1254;111913;-59
2023/01/20 06:38:47;;;;;;;18.00;3.70;;;;;;;7.87;83.74;100414.33;107629;1254;111044;-58
2023/01/20 06:41:18;;;;;;;16.30;4.00;;;;;;;7.91;83.83;100409.00;107615;1256;107699;-59
2023/01/20 06:43:46;;;;;;;18.40;4.30;;;;;;;7.94;83.77;100408.52;107586;1256;98473;-59
2023/01/20 06:46:15;;;;;;;17.90;4.10;;;;;;;7.98;83.64;100398.91;107550;1254;98441;-61
2023/01/20 06:48:44;;;;;;;17.80;4.80;;;;;;;8.02;83.65;100405.73;107626;1256;110632;-60
2023/01/20 06:51:19;;;;;;;22.40;3.70;;;;;;;8.04;83.82;100412.53;107586;1256;109591;-60
2023/01/20 06:53:47;;;;;;;21.40;4.80;;;;;;;8.05;83.81;100424.55;107542;1254;108704;-59
2023/01/20 06:56:16;;;;;;;14.30;4.00;;;;;;;8.11;83.73;100426.95;107568;1254;97825;-60
2023/01/20 06:58:44;;;;;;;18.70;4.00;;;;;;;8.16;83.83;100427.45;107537;1256;97853;-59
2023/01/20 07:01:25;;;;;;;18.50;4.40;;;;;;;8.18;83.73;100430.98;107587;1254;112119;-60
2023/01/20 07:03:54;;;;;;;18.30;5.00;;;;;;;8.25;83.37;100431.19;107566;1256;110305;-60
2023/01/20 07:06:37;;;;;;;16.40;5.30;;;;;;;8.31;83.22;100429.77;107527;1254;107452;-59
2023/01/20 07:09:14;;;;;;;16.90;5.40;;;;;;;8.38;82.88;100419.31;107503;1254;97844;-60
2023/01/20 07:11:43;;;;;;;23.00;6.10;;;;;;;8.46;82.73;100421.19;107503;1256;99568;-60
2023/01/20 07:14:11;;;;;;;20.60;6.90;;;;;;;8.56;82.72;100427.48;107540;1256;111876;-59
2023/01/20 07:16:40;;;;;;;19.70;6.30;;;;;;;8.65;82.55;100432.23;107547;1256;109797;-58
2023/01/20 07:19:08;;;;;;;23.30;5.20;;;;;;;8.72;82.41;100429.86;107560;1254;107825;-58
2023/01/20 07:21:36;;;;;;;22.60;5.60;;;;;;;8.87;82.26;100429.46;107616;1254;97853;-60
2023/01/20 07:24:05;;;;;;;18.40;5.30;;;;;;;8.98;81.78;100424.57;107574;1254;97689;-59
2023/01/20 07:26:34;;;;;;;19.60;5.50;;;;;;;9.06;81.68;100418.73;107623;1254;111097;-59
2023/01/20 07:29:02;;;;;;;27.80;7.70;;;;;;;9.14;81.15;100419.61;107566;1257;109661;-62
2023/01/20 07:31:33;;;;;;;26.20;9.70;;;;;;;9.21;81.05;100424.16;107625;1256;107687;-60
2023/01/20 07:34:01;;;;;;;26.10;10.00;;;;;;;9.29;80.81;100424.71;107463;1259;97915;-59
2023/01/20 07:36:30;;;;;;;37.40;9.60;;;;;;;9.35;80.43;100430.32;107537;1254;97896;-59
2023/01/20 07:38:58;;;;;;;17.30;6.30;;;;;;;9.41;80.11;100427.27;107489;1259;111344;-59
2023/01/20 07:41:27;;;;;;;20.80;6.50;;;;;;;9.46;79.81;100428.50;107498;1255;110006;-60
2023/01/20 07:43:55;;;;;;;24.70;6.70;;;;;;;9.48;79.50;100436.35;107501;1255;109618;-60
2023/01/20 07:46:24;;;;;;;24.50;7.10;;;;;;;9.50;79.49;100438.08;107546;1255;97831;-60
2023/01/20 07:48:52;;;;;;;17.10;7.00;;;;;;;9.54;79.15;100431.66;107517;1257;98380;-60
2023/01/20 07:51:20;;;;;;;18.40;6.90;;;;;;;9.53;78.80;100436.03;107571;1256;111787;-61
2023/01/20 07:53:50;;;;;;;30.70;7.40;;;;;;;9.53;78.73;100430.64;107414;1255;109941;-60
2023/01/20 07:56:22;;;;;;;24.10;7.10;;;;;;;9.55;78.71;100438.35;107553;1254;108828;-59
2023/01/20 07:58:52;;;;;;;22.10;6.90;;;;;;;9.58;78.45;100438.49;107456;1256;97854;-60
2023/01/20 08:01:23;;;;;;;19.20;7.00;;;;;;;9.59;78.49;100444.83;107576;1256;97700;-60
2023/01/20 08:03:52;;;;;;;24.90;7.30;;;;;;;9.62;78.58;100444.39;107537;1254;111927;-61
2023/01/20 08:06:23;;;;;;;21.50;6.90;;;;;;;9.68;78.60;100453.54;107563;1254;109318;-60
2023/01/20 08:08:53;;;;;;;20.70;6.50;;;;;;;9.72;78.46;100454.25;107539;1256;108373;-61
2023/01/20 08:11:21;;;;;;;22.90;5.90;;;;;;;9.78;78.38;100465.20;107646;1253;97982;-60
2023/01/20 08:13:50;;;;;;;20.90;5.90;;;;;;;9.83;78.12;100459.65;107555;1254;97784;-59
2023/01/20 08:16:19;;;;;;;23.50;6.20;;;;;;;9.89;78.07;100468.33;107509;1256;112495;-60
2023/01/20 08:18:48;;;;;;;18.00;5.50;;;;;;;9.96;77.95;100471.59;107558;1254;110060;-58
2023/01/20 08:21:23;;;;;;;19.10;5.70;;;;;;;10.02;77.80;100469.59;107537;1254;108664;-60
2023/01/20 08:23:54;;;;;;;18.70;6.20;;;;;;;10.10;77.61;100468.20;107516;1254;97842;-59
2023/01/20 08:26:24;;;;;;;21.10;6.40;;;;;;;10.21;77.39;100468.98;107517;1257;97873;-60
2023/01/20 08:28:53;;;;;;;17.40;5.20;;;;;;;10.35;77.38;100474.02;107562;1254;111152;-60
2023/01/20 08:31:23;;;;;;;27.70;6.30;;;;;;;10.52;77.02;100470.83;107538;1254;110203;-59
2023/01/20 08:33:53;;;;;;;24.90;6.40;;;;;;;10.69;76.98;100471.04;107599;1253;108725;-60
2023/01/20 08:36:28;;;;;;;18.80;6.50;;;;;;;10.95;76.63;100476.31;107643;1256;97826;-60
2023/01/20 08:39:01;;;;;;;19.70;7.20;;;;;;;11.13;76.34;100471.73;107650;1254;97720;-59
2023/01/20 08:41:33;;;;;;;22.40;7.40;;;;;;;11.30;76.02;100472.13;107646;1255;112729;-59
2023/01/20 08:44:05;;;;;;;19.90;7.20;;;;;;;11.52;75.74;100475.16;107581;1254;109918;-61
2023/01/20 08:46:34;;;;;;;25.60;7.70;;;;;;;11.84;74.57;100475.16;107549;1254;108397;-61
2023/01/20 08:49:15;;;;;;;17.60;7.00;;;;;;;12.19;73.47;100466.81;107520;1255;97902;-61
2023/01/20 08:51:44;;;;;;;25.60;8.10;;;;;;;12.74;72.94;100470.80;107541;1254;97941;-60
2023/01/20 08:54:13;;;;;;;22.80;6.90;;;;;;;13.40;71.42;100468.35;107557;1254;111484;-61
2023/01/20 08:56:42;;;;;;;15.80;6.00;;;;;;;13.81;69.37;100466.17;107678;1255;109958;-60
2023/01/20 08:59:11;;;;;;;15.10;6.70;;;;;;;13.90;69.22;100466.51;107515;1254;106716;-60
2023/01/20 09:01:40;;;;;;;15.70;6.10;;;;;;;14.48;66.80;100460.45;107538;1254;97832;-60
2023/01/20 09:04:09;;;;;;;17.50;6.10;;;;;;;15.04;65.14;100464.86;107638;1253;97718;-61
2023/01/20 09:06:39;;;;;;;17.20;6.80;;;;;;;15.58;65.38;100463.92;107659;1254;112239;-60
2023/01/20 09:09:08;;;;;;;15.10;5.90;;;;;;;16.18;62.89;100451.40;107551;1254;109866;-61
2023/01/20 09:11:38;;;;;;;18.80;6.00;;;;;;;16.64;60.48;100460.41;107507;1254;107705;-61
2023/01/20 09:14:07;;;;;;;18.70;6.60;;;;;;;17.15;61.24;100459.66;107524;1253;97683;-61
2023/01/20 09:16:35;;;;;;;16.50;5.40;;;;;;;17.78;59.15;100460.06;107519;1254;98646;-60
2023/01/20 09:19:03;;;;;;;12.60;5.20;;;;;;;18.08;55.30;100460.75;107551;1254;111823;-59
2023/01/20 09:21:31;;;;;;;14.90;6.50;;;;;;;18.47;55.61;100461.80;107529;1254;111046;-60
2023/01/20 09:24:00;;;;;;;17.70;6.30;;;;;;;18.92;55.13;100466.32;107552;1254;108797;-60
2023/01/20 09:26:37;;;;;;;18.00;6.60;;;;;;;19.37;53.91;100457.02;107538;1252;97822;-61
2023/01/20 09:29:09;;;;;;;15.40;6.10;;;;;;;19.68;52.32;100455.37;107582;1254;97886;-61
2023/01/20 09:31:42;;;;;;;19.80;6.00;;;;;;;20.03;52.96;100453.44;107534;1253;112794;-62
2023/01/20 09:34:17;;;;;;;15.90;6.70;;;;;;;20.35;50.63;100443.50;107545;1254;109796;-59
2023/01/20 09:36:52;;;;;;;18.10;7.40;;;;;;;20.50;51.51;100446.19;107519;1254;109381;-61
2023/01/20 09:45:24;;;;;;;18.00;5.60;;;;;;;21.21;46.95;100423.52;107556;1256;113055;-61
2023/01/20 09:48:13;;;;;;;15.80;5.50;;;;;;;21.07;48.17;100423.86;107596;1254;110167;-61
2023/01/20 09:53:43;;;;;;;10.30;3.90;;;;;;;21.56;43.71;100415.79;107510;1253;97825;-61
2023/01/20 09:56:15;;;;;;;13.50;4.30;;;;;;;21.45;41.84;100417.17;107603;1254;98370;-61
2023/01/20 09:58:52;;;;;;;19.10;4.40;;;;;;;21.13;42.66;100406.85;107531;1254;111918;-61
2023/01/20 10:01:42;;;;;;;13.60;3.90;;;;;;;20.87;42.25;100407.12;107543;1254;109688;-60
2023/01/20 10:04:11;;;;;;;12.80;4.30;;;;;;;20.59;43.45;100407.34;107423;1254;107841;-59
2023/01/20 10:06:44;;;;;;;11.40;4.50;;;;;;;20.33;44.79;100405.92;107501;1254;97829;-59
2023/01/20 10:09:40;;;;;;;16.50;4.40;;;;;;;19.94;45.00;100394.61;107547;1254;97918;-60
2023/01/20 10:12:17;;;;;;;26.80;6.10;;;;;;;19.34;45.07;100393.58;107598;1254;112004;-58
2023/01/20 10:14:51;;;;;;;15.80;3.90;;;;;;;18.89;45.27;100389.98;107581;1256;109141;-60
2023/01/20 10:17:37;;;;;;;13.50;5.50;;;;;;;18.48;45.90;100393.13;107571;1254;109654;-59
2023/01/20 10:20:09;;;;;;;;;;;;;;;18.18;46.73;100395.06;107536;1254;97851;-58
2023/01/20 10:22:40;;;;;;;13.60;4.80;;;;;;;17.85;47.38;100386.49;107562;1254;97727;-60
2023/01/20 10:25:16;;;;;;;13.10;4.90;;;;;;;17.61;47.95;100385.64;107517;1254;111581;-59
2023/01/20 10:28:17;;;;;;;15.00;5.00;;;;;;;17.40;48.61;100381.91;107572;1254;111102;-60
2023/01/20 10:30:47;;;;;;;23.40;5.20;;;;;;;17.24;48.88;100378.30;107447;1255;108283;-59
2023/01/20 10:33:27;;;;;;;21.50;5.30;;;;;;;17.07;49.26;100379.38;107541;1254;97703;-62
2023/01/20 10:35:58;;;;;;;16.30;4.90;;;;;;;16.84;50.05;100372.21;107543;1254;98467;-59
2023/01/20 10:38:52;;;;;;;13.20;5.00;;;;;;;16.72;50.74;100370.38;107557;1254;110930;-59
2023/01/20 10:41:32;;;;;;;27.40;6.80;;;;;;;16.65;51.04;100370.56;107538;1254;109021;-58
2023/01/20 10:44:03;;;;;;;14.70;5.30;;;;;;;16.61;51.51;100361.95;106697;1252;1151790;-60
2023/01/20 10:46:50;;;;;;;15.10;5.70;;;;;;;16.66;51.74;100353.00;107572;1253;97838;-59
2023/01/20 10:49:38;;;;;;;18.20;5.20;;;;;;;16.84;52.22;100348.02;107520;1254;98386;-59
2023/01/20 10:52:38;;;;;;;18.50;6.10;;;;;;;17.37;51.54;100342.64;107600;1254;111905;-59
2023/01/20 10:55:48;;;;;;;17.30;5.50;;;;;;;17.51;51.31;100330.46;107426;1254;109331;-59
2023/01/20 10:58:24;;;;;;;16.00;5.60;;;;;;;17.55;50.74;100327.36;107562;1254;109013;-62
2023/01/20 11:00:54;;;;;;;15.10;5.80;;;;;;;17.45;50.70;100329.39;107538;1254;97853;-61
2023/01/20 11:03:24;;;;;;;10.90;5.90;;;;;;;17.34;51.33;100325.59;107592;1254;97733;-60
2023/01/20 11:05:53;;;;;;;19.70;6.60;;;;;;;17.19;51.58;100333.44;107531;1254;112346;-59
2023/01/20 11:08:26;;;;;;;17.40;6.50;;;;;;;16.98;51.90;100338.62;107565;1254;110161;-61
2023/01/20 11:10:59;;;;;;;;;;;;;;;16.86;52.53;100336.71;107586;1256;108467;-60
2023/01/20 11:13:27;;;;;;;17.30;7.80;;;;;;;16.74;52.76;100337.59;107554;1254;97854;-61
2023/01/20 11:16:01;;;;;;;14.80;6.20;;;;;;;16.55;53.02;100335.73;107549;1254;98360;-60
2023/01/20 11:18:31;;;;;;;20.70;7.60;;;;;;;16.33;53.32;100331.59;107598;1254;111343;-60
2023/01/20 11:21:08;;;;;;;15.40;6.60;;;;;;;16.21;53.63;100335.39;107617;1254;109100;-60
2023/01/20 11:23:52;;;;;;;16.80;7.10;;;;;;;16.10;53.92;100326.64;107540;1254;108390;-60
2023/01/20 11:26:32;;;;;;;35.60;8.00;;;;;;;15.89;54.26;100324.14;107460;1253;97836;-60
2023/01/20 11:29:27;;;;;;;19.50;6.80;;;;;;;15.86;54.44;100325.99;107614;1254;97940;-60
2023/01/20 11:31:58;;;;;;;23.20;6.90;;;;;;;15.85;54.55;100322.17;107581;1254;111403;-59
2023/01/20 11:34:47;;;;;;;15.80;5.00;;;;;;;15.83;54.73;100322.04;107641;1254;110393;-59
2023/01/20 11:37:24;;;;;;;11.20;5.60;;;;;;;15.85;54.34;100317.23;107610;1253;108834;-59
2023/01/20 11:39:59;;;;;;;15.60;5.40;;;;;;;15.87;54.13;100315.04;107562;1254;97839;-60
2023/01/20 11:42:43;;;;;;;15.80;5.10;;;;;;;15.87;54.13;100318.59;107636;1254;97825;-59
2023/01/20 11:45:25;;;;;;;16.80;5.00;;;;;;;15.91;53.93;100316.68;107465;1254;112238;-61